Time,TemperatureF,DewpointF,PressureIn,WindDirection,WindDirectionDegrees,WindSpeedMPH,WindSpeedGustMPH,Humidity,HourlyPrecipIn,Conditions,Clouds,dailyrainin,SoftwareType,DateUTC
2013-04-02 00:00:00,66.4,62.8,30.02,West,280,0.0,3.0,88,0.00,,,0.00,meteohub,2013-04-02 04:00:00,
2013-04-02 00:05:00,66.2,62.6,30.02,West,280,0.0,0.0,88,0.00,,,0.00,meteohub,2013-04-02 04:05:00,
2013-04-02 00:11:00,66.0,62.4,30.03,WNW,284,0.0,1.0,88,0.00,,,0.00,meteohub,2013-04-02 04:11:00,
2013-04-02 00:16:00,65.8,62.4,30.02,WNW,294,0.0,1.0,89,0.00,,,0.00,meteohub,2013-04-02 04:16:00,
2013-04-02 00:21:00,65.8,62.4,30.03,WNW,284,0.0,1.0,89,0.00,,,0.00,meteohub,2013-04-02 04:21:00,
2013-04-02 00:26:00,65.7,62.2,30.02,SW,233,0.0,1.0,89,0.00,,,0.00,meteohub,2013-04-02 04:26:00,
2013-04-02 00:31:00,65.7,62.6,30.02,WSW,246,0.0,1.0,90,0.00,,,0.00,meteohub,2013-04-02 04:31:00,
2013-04-02 00:37:00,65.5,62.4,30.02,West,274,0.0,1.0,90,0.00,,,0.00,meteohub,2013-04-02 04:37:00,
2013-04-02 00:42:00,65.5,62.8,30.02,West,260,0.0,1.0,91,0.00,,,0.00,meteohub,2013-04-02 04:42:00,
2013-04-02 00:47:00,65.5,62.8,30.02,WSW,246,0.0,1.0,91,0.00,,,0.00,meteohub,2013-04-02 04:47:00,
2013-04-02 00:52:00,65.5,62.8,30.03,WNW,290,0.0,1.0,91,0.00,,,0.00,meteohub,2013-04-02 04:52:00,
2013-04-02 00:57:00,65.3,62.6,30.02,NW,311,0.0,1.0,91,0.00,,,0.00,meteohub,2013-04-02 04:57:00,
2013-04-02 01:02:00,65.1,62.4,30.03,West,262,0.0,2.0,91,0.00,,,0.00,meteohub,2013-04-02 05:02:00,
2013-04-02 01:07:00,64.9,62.6,30.02,West,262,0.0,2.0,92,0.00,,,0.00,meteohub,2013-04-02 05:07:00,
2013-04-02 01:13:00,64.9,62.6,30.02,WSW,246,0.0,0.0,92,0.00,,,0.00,meteohub,2013-04-02 05:13:00,
2013-04-02 01:18:00,64.8,62.4,30.02,WSW,246,0.0,1.0,92,0.00,,,0.00,meteohub,2013-04-02 05:18:00,
2013-04-02 01:23:00,64.8,62.6,30.02,SSW,203,0.0,1.0,93,0.00,,,0.00,meteohub,2013-04-02 05:23:00,
2013-04-02 01:28:00,64.8,62.6,30.02,SSW,203,0.0,2.0,93,0.00,,,0.00,meteohub,2013-04-02 05:28:00,
2013-04-02 01:33:00,64.6,62.4,30.02,SSW,208,0.0,2.0,93,0.00,,,0.00,meteohub,2013-04-02 05:33:00,
2013-04-02 01:38:00,64.6,62.4,30.02,WSW,238,0.0,1.0,93,0.00,,,0.00,meteohub,2013-04-02 05:38:00,
2013-04-02 01:43:00,64.6,62.4,30.02,NW,314,0.0,1.0,93,0.00,,,0.00,meteohub,2013-04-02 05:43:00,
2013-04-02 01:48:00,64.6,62.4,30.02,SSW,194,0.0,1.0,93,0.00,,,0.00,meteohub,2013-04-02 05:48:00,
2013-04-02 01:53:00,64.6,62.8,30.02,ESE,120,0.0,1.0,94,0.00,,,0.00,meteohub,2013-04-02 05:53:00,
2013-04-02 01:59:00,64.6,62.8,30.02,SSW,201,0.0,1.0,94,0.00,,,0.00,meteohub,2013-04-02 05:59:00,
2013-04-02 02:04:00,64.6,62.4,30.02,SW,218,0.0,1.0,93,0.00,,,0.00,meteohub,2013-04-02 06:04:00,
2013-04-02 02:09:00,64.2,62.4,30.02,SW,219,0.0,1.0,94,0.00,,,0.00,meteohub,2013-04-02 06:09:00,
2013-04-02 02:14:00,64.2,62.4,30.02,SW,218,0.0,1.0,94,0.00,,,0.00,meteohub,2013-04-02 06:14:00,
2013-04-02 02:19:00,64.2,62.4,30.03,West,273,1.0,0.0,94,0.00,,,0.00,meteohub,2013-04-02 06:19:00,
2013-04-02 02:24:00,64.2,62.4,30.03,WNW,284,0.0,0.0,94,0.00,,,0.00,meteohub,2013-04-02 06:24:00,
2013-04-02 02:29:00,64.0,62.2,30.03,SW,217,0.0,1.0,94,0.00,,,0.00,meteohub,2013-04-02 06:29:00,
2013-04-02 02:34:00,63.9,62.1,30.03,SW,232,0.0,2.0,94,0.00,,,0.00,meteohub,2013-04-02 06:34:00,
2013-04-02 02:39:00,63.9,62.1,30.03,SW,232,0.0,2.0,94,0.00,,,0.00,meteohub,2013-04-02 06:39:00,
2013-04-02 02:44:00,63.7,62.2,30.03,West,266,0.0,1.0,95,0.00,,,0.00,meteohub,2013-04-02 06:44:00,
2013-04-02 02:50:00,63.7,62.2,30.03,SW,224,0.0,0.0,95,0.00,,,0.00,meteohub,2013-04-02 06:50:00,
2013-04-02 02:55:00,63.7,62.2,30.03,West,274,0.0,0.0,95,0.00,,,0.00,meteohub,2013-04-02 06:55:00,
2013-04-02 03:00:00,63.5,62.1,30.03,West,274,0.0,1.0,95,0.00,,,0.00,meteohub,2013-04-02 07:00:00,
2013-04-02 03:05:00,63.3,61.9,30.03,WSW,238,0.0,1.0,95,0.00,,,0.00,meteohub,2013-04-02 07:05:00,
2013-04-02 03:10:00,63.3,61.9,30.02,WNW,285,0.0,1.0,95,0.00,,,0.00,meteohub,2013-04-02 07:10:00,
2013-04-02 03:15:00,63.1,61.7,30.02,West,274,0.0,1.0,95,0.00,,,0.00,meteohub,2013-04-02 07:15:00,
2013-04-02 03:20:00,63.1,61.7,30.02,WSW,258,0.0,1.0,95,0.00,,,0.00,meteohub,2013-04-02 07:20:00,
2013-04-02 03:25:00,63.1,62.1,30.03,WSW,255,0.0,1.0,96,0.00,,,0.00,meteohub,2013-04-02 07:25:00,
2013-04-02 03:30:00,63.1,61.7,30.03,WSW,257,0.0,1.0,95,0.00,,,0.00,meteohub,2013-04-02 07:30:00,
2013-04-02 03:35:00,63.0,61.5,30.02,WSW,258,1.0,1.0,95,0.00,,,0.00,meteohub,2013-04-02 07:35:00,
2013-04-02 03:40:00,63.0,61.9,30.02,West,280,0.0,1.0,96,0.00,,,0.00,meteohub,2013-04-02 07:40:00,
2013-04-02 03:45:00,63.0,61.9,30.02,WSW,239,0.0,2.0,96,0.00,,,0.00,meteohub,2013-04-02 07:45:00,
2013-04-02 03:50:00,62.8,61.7,30.02,WSW,240,0.0,2.0,96,0.00,,,0.00,meteohub,2013-04-02 07:50:00,
2013-04-02 03:55:00,62.8,61.7,30.02,SW,231,0.0,2.0,96,0.00,,,0.00,meteohub,2013-04-02 07:55:00,
2013-04-02 04:00:00,62.8,61.7,30.02,SW,232,0.0,1.0,96,0.00,,,0.00,meteohub,2013-04-02 08:00:00,
2013-04-02 04:05:00,62.8,61.7,30.02,SW,214,0.0,1.0,96,0.00,,,0.00,meteohub,2013-04-02 08:05:00,
2013-04-02 04:11:00,62.4,61.3,30.02,SW,214,0.0,1.0,96,0.00,,,0.00,meteohub,2013-04-02 08:11:00,
2013-04-02 04:16:00,62.4,61.3,30.02,SW,214,0.0,1.0,96,0.00,,,0.00,meteohub,2013-04-02 08:16:00,
2013-04-02 04:21:00,62.4,61.3,30.03,SW,229,0.0,1.0,96,0.00,,,0.00,meteohub,2013-04-02 08:21:00,
2013-04-02 04:26:00,62.2,61.2,30.03,SW,225,0.0,1.0,96,0.00,,,0.00,meteohub,2013-04-02 08:26:00,
2013-04-02 04:31:00,62.2,61.2,30.03,SW,226,0.0,2.0,96,0.00,,,0.00,meteohub,2013-04-02 08:31:00,
2013-04-02 04:36:00,62.1,61.0,30.03,SSW,210,0.0,2.0,96,0.00,,,0.00,meteohub,2013-04-02 08:36:00,
2013-04-02 04:41:00,62.1,61.0,30.03,SSW,210,0.0,2.0,96,0.00,,,0.00,meteohub,2013-04-02 08:41:00,
2013-04-02 04:46:00,61.9,60.8,30.03,SSW,210,0.0,1.0,96,0.00,,,0.00,meteohub,2013-04-02 08:46:00,
2013-04-02 04:52:00,61.7,60.8,30.03,SSW,210,0.0,1.0,97,0.00,,,0.00,meteohub,2013-04-02 08:52:00,
2013-04-02 04:57:00,61.7,60.8,30.04,SSW,210,0.0,0.0,97,0.00,,,0.00,meteohub,2013-04-02 08:57:00,
2013-04-02 05:02:00,61.5,60.6,30.04,SSW,210,0.0,0.0,97,0.00,,,0.00,meteohub,2013-04-02 09:02:00,
2013-04-02 05:07:00,61.5,60.6,30.04,SSW,210,0.0,0.0,97,0.00,,,0.00,meteohub,2013-04-02 09:07:00,
2013-04-02 05:12:00,61.5,60.6,30.04,SSW,210,0.0,0.0,97,0.00,,,0.00,meteohub,2013-04-02 09:12:00,
2013-04-02 05:17:00,61.5,60.6,30.04,SSW,200,0.0,0.0,97,0.00,,,0.00,meteohub,2013-04-02 09:17:00,
2013-04-02 05:22:00,61.3,60.4,30.04,SSW,200,0.0,0.0,97,0.00,,,0.00,meteohub,2013-04-02 09:22:00,
2013-04-02 05:27:00,61.3,60.4,30.04,SSW,200,0.0,0.0,97,0.00,,,0.00,meteohub,2013-04-02 09:27:00,
2013-04-02 05:32:00,61.3,60.4,30.04,SSW,200,0.0,0.0,97,0.00,,,0.00,meteohub,2013-04-02 09:32:00,
2013-04-02 05:37:00,61.2,60.3,30.04,SSW,200,0.0,0.0,97,0.00,,,0.00,meteohub,2013-04-02 09:37:00,
2013-04-02 05:42:00,61.0,60.1,30.04,SSW,200,0.0,0.0,97,0.00,,,0.00,meteohub,2013-04-02 09:42:00,
2013-04-02 05:47:00,60.8,59.9,30.04,SSW,198,0.0,0.0,97,0.00,,,0.00,meteohub,2013-04-02 09:47:00,
2013-04-02 05:52:00,60.6,59.7,30.04,SSW,200,0.0,0.0,97,0.00,,,0.00,meteohub,2013-04-02 09:52:00,
2013-04-02 05:57:00,60.6,59.7,30.04,SSW,200,0.0,0.0,97,0.00,,,0.00,meteohub,2013-04-02 09:57:00,
2013-04-02 06:02:00,60.4,59.5,30.04,SSW,200,0.0,0.0,97,0.00,,,0.00,meteohub,2013-04-02 10:02:00,
2013-04-02 06:07:00,60.6,59.7,30.04,SSW,200,0.0,0.0,97,0.00,,,0.00,meteohub,2013-04-02 10:07:00,
2013-04-02 06:12:00,60.6,59.7,30.04,SSW,199,0.0,0.0,97,0.00,,,0.00,meteohub,2013-04-02 10:12:00,
2013-04-02 06:17:00,60.4,59.5,30.04,SSW,200,0.0,0.0,97,0.00,,,0.00,meteohub,2013-04-02 10:17:00,
2013-04-02 06:23:00,60.4,59.5,30.04,SSW,200,0.0,0.0,97,0.00,,,0.00,meteohub,2013-04-02 10:23:00,
2013-04-02 06:28:00,60.6,60.1,30.05,SSW,200,0.0,0.0,98,0.00,,,0.00,meteohub,2013-04-02 10:28:00,
2013-04-02 06:33:00,60.6,60.1,30.05,SSW,201,0.0,0.0,98,0.00,,,0.00,meteohub,2013-04-02 10:33:00,
2013-04-02 06:38:00,60.6,60.1,30.05,WSW,238,0.0,0.0,98,0.00,,,0.00,meteohub,2013-04-02 10:38:00,
2013-04-02 06:43:00,60.8,60.3,30.05,WSW,239,0.0,0.0,98,0.00,,,0.00,meteohub,2013-04-02 10:43:00,
2013-04-02 06:48:00,60.6,60.1,30.05,SSW,205,0.0,0.0,98,0.00,,,0.00,meteohub,2013-04-02 10:48:00,
2013-04-02 06:53:00,60.8,60.3,30.05,SSW,211,0.0,0.0,98,0.00,,,0.00,meteohub,2013-04-02 10:53:00,
2013-04-02 06:58:00,60.4,59.9,30.05,SSW,211,0.0,0.0,98,0.00,,,0.00,meteohub,2013-04-02 10:58:00,
2013-04-02 07:03:00,60.4,59.9,30.06,WNW,290,0.0,0.0,98,0.00,,,0.00,meteohub,2013-04-02 11:03:00,
2013-04-02 07:08:00,60.4,59.9,30.06,WSW,239,0.0,1.0,98,0.00,,,0.00,meteohub,2013-04-02 11:08:00,
2013-04-02 07:13:00,60.4,59.9,30.06,WSW,239,0.0,1.0,98,0.00,,,0.00,meteohub,2013-04-02 11:13:00,
2013-04-02 07:19:00,60.3,59.7,30.06,WSW,239,0.0,1.0,98,0.00,,,0.00,meteohub,2013-04-02 11:19:00,
2013-04-02 07:24:00,60.4,59.9,30.07,WNW,283,0.0,0.0,98,0.00,,,0.00,meteohub,2013-04-02 11:24:00,
2013-04-02 07:29:00,60.6,60.1,30.07,WNW,283,0.0,1.0,98,0.00,,,0.00,meteohub,2013-04-02 11:29:00,
2013-04-02 07:34:00,60.4,59.9,30.07,WNW,284,0.0,1.0,98,0.00,,,0.00,meteohub,2013-04-02 11:34:00,
2013-04-02 07:39:00,60.4,59.9,30.07,WNW,284,0.0,1.0,98,0.00,,,0.00,meteohub,2013-04-02 11:39:00,
2013-04-02 07:44:00,60.3,59.7,30.07,WNW,284,0.0,0.0,98,0.00,,,0.00,meteohub,2013-04-02 11:44:00,
2013-04-02 07:49:00,60.3,59.7,30.08,WNW,284,0.0,0.0,98,0.00,,,0.00,meteohub,2013-04-02 11:49:00,
2013-04-02 07:54:00,60.4,59.9,30.08,WNW,285,0.0,0.0,98,0.00,,,0.00,meteohub,2013-04-02 11:54:00,
2013-04-02 07:59:00,60.6,60.1,30.08,WNW,285,0.0,0.0,98,0.00,,,0.00,meteohub,2013-04-02 11:59:00,
2013-04-02 08:04:00,61.0,60.6,30.08,NNW,328,0.0,0.0,99,0.00,,,0.00,meteohub,2013-04-02 12:04:00,
2013-04-02 08:09:00,61.2,60.8,30.08,NW,325,0.0,2.0,99,0.00,,,0.00,meteohub,2013-04-02 12:09:00,
2013-04-02 08:14:00,61.3,60.8,30.09,North,349,0.0,3.0,98,0.00,,,0.00,meteohub,2013-04-02 12:14:00,
2013-04-02 08:20:00,61.5,61.0,30.09,NW,326,0.0,3.0,98,0.00,,,0.00,meteohub,2013-04-02 12:20:00,
2013-04-02 08:25:00,61.9,61.3,30.09,NW,320,1.0,3.0,98,0.00,,,0.00,meteohub,2013-04-02 12:25:00,
2013-04-02 08:30:00,62.1,61.5,30.09,NNW,337,2.0,6.0,98,0.00,,,0.00,meteohub,2013-04-02 12:30:00,
2013-04-02 08:35:00,62.2,61.7,30.09,North,3,0.0,6.0,98,0.00,,,0.00,meteohub,2013-04-02 12:35:00,
2013-04-02 08:40:00,62.6,62.1,30.09,NNW,335,2.0,5.0,98,0.00,,,0.00,meteohub,2013-04-02 12:40:00,
2013-04-02 08:45:00,63.0,62.1,30.09,NW,319,0.0,5.0,97,0.00,,,0.00,meteohub,2013-04-02 12:45:00,
2013-04-02 08:50:00,63.3,62.4,30.10,NE,35,0.0,3.0,97,0.00,,,0.00,meteohub,2013-04-02 12:50:00,
2013-04-02 08:55:00,63.7,62.8,30.10,NW,321,0.0,3.0,97,0.00,,,0.00,meteohub,2013-04-02 12:55:00,
2013-04-02 09:00:00,64.0,62.6,30.09,North,4,3.0,3.0,95,0.00,,,0.00,meteohub,2013-04-02 13:00:00,
2013-04-02 09:05:00,64.2,62.4,30.09,North,3,0.0,5.0,94,0.00,,,0.00,meteohub,2013-04-02 13:05:00,
2013-04-02 09:11:00,64.9,62.8,30.10,NNW,332,0.0,5.0,93,0.00,,,0.00,meteohub,2013-04-02 13:11:00,
2013-04-02 09:16:00,65.5,62.8,30.09,NW,314,1.0,5.0,91,0.00,,,0.00,meteohub,2013-04-02 13:16:00,
2013-04-02 09:21:00,66.0,62.6,30.10,NNW,329,3.0,3.0,89,0.00,,,0.00,meteohub,2013-04-02 13:21:00,
2013-04-02 09:26:00,66.6,62.6,30.10,NNW,342,1.0,4.0,87,0.00,,,0.00,meteohub,2013-04-02 13:26:00,
2013-04-02 09:31:00,67.3,62.2,30.10,NNE,16,5.0,5.0,84,0.00,,,0.00,meteohub,2013-04-02 13:31:00,
2013-04-02 09:36:00,67.3,61.9,30.11,NW,322,3.0,10.0,83,0.00,,,0.00,meteohub,2013-04-02 13:36:00,
2013-04-02 09:41:00,67.5,61.2,30.11,NNE,16,5.0,10.0,80,0.00,,,0.00,meteohub,2013-04-02 13:41:00,
2013-04-02 09:46:00,67.8,61.3,30.11,North,357,1.0,10.0,80,0.00,,,0.00,meteohub,2013-04-02 13:46:00,
2013-04-02 09:52:00,68.4,61.5,30.11,North,352,5.0,10.0,79,0.00,,,0.00,meteohub,2013-04-02 13:52:00,
2013-04-02 09:57:00,68.5,60.6,30.11,NNE,13,3.0,10.0,76,0.00,,,0.00,meteohub,2013-04-02 13:57:00,
2013-04-02 10:02:00,69.1,61.2,30.11,North,9,3.0,8.0,76,0.00,,,0.00,meteohub,2013-04-02 14:02:00,
2013-04-02 10:07:00,69.3,60.6,30.11,North,9,4.0,8.0,74,0.00,,,0.00,meteohub,2013-04-02 14:07:00,
2013-04-02 10:12:00,69.4,60.8,30.11,NW,326,0.0,9.0,74,0.00,,,0.00,meteohub,2013-04-02 14:12:00,
2013-04-02 10:17:00,70.0,61.3,30.11,NNE,13,0.0,9.0,74,0.00,,,0.00,meteohub,2013-04-02 14:17:00,
2013-04-02 10:22:00,70.2,61.2,30.11,NNW,328,0.0,9.0,73,0.00,,,0.00,meteohub,2013-04-02 14:22:00,
2013-04-02 10:27:00,70.3,60.8,30.11,NNE,23,2.0,8.0,72,0.00,,,0.00,meteohub,2013-04-02 14:27:00,
2013-04-02 10:32:00,70.9,60.6,30.11,NNE,22,1.0,8.0,70,0.00,,,0.00,meteohub,2013-04-02 14:32:00,
2013-04-02 10:38:00,71.2,60.1,30.11,NNE,27,0.0,8.0,68,0.00,,,0.00,meteohub,2013-04-02 14:38:00,
2013-04-02 10:43:00,72.0,59.9,30.11,North,349,2.0,9.0,66,0.00,,,0.00,meteohub,2013-04-02 14:43:00,
2013-04-02 10:48:00,72.7,60.3,30.11,NNE,16,2.0,9.0,65,0.00,,,0.00,meteohub,2013-04-02 14:48:00,
2013-04-02 10:53:00,72.9,58.6,30.12,NNW,332,4.0,9.0,61,0.00,,,0.00,meteohub,2013-04-02 14:53:00,
2013-04-02 10:58:00,72.9,58.1,30.12,NNW,340,5.0,7.0,60,0.00,,,0.00,meteohub,2013-04-02 14:58:00,
2013-04-02 11:03:00,73.0,58.8,30.12,NE,45,5.0,9.0,61,0.00,,,0.00,meteohub,2013-04-02 15:03:00,
2013-04-02 11:08:00,73.4,57.2,30.12,North,349,4.0,9.0,57,0.00,,,0.00,meteohub,2013-04-02 15:08:00,
2013-04-02 11:13:00,73.8,57.0,30.12,North,0,1.0,9.0,56,0.00,,,0.00,meteohub,2013-04-02 15:13:00,
2013-04-02 11:18:00,73.9,57.7,30.12,NNW,338,4.0,8.0,57,0.00,,,0.00,meteohub,2013-04-02 15:18:00,
2013-04-02 11:24:00,74.5,57.2,30.12,NE,44,4.0,8.0,55,0.00,,,0.00,meteohub,2013-04-02 15:24:00,
2013-04-02 11:29:00,74.8,57.0,30.12,NE,47,4.0,7.0,54,0.00,,,0.00,meteohub,2013-04-02 15:29:00,
2013-04-02 11:34:00,75.2,55.8,30.12,North,350,6.0,9.0,51,0.00,,,0.00,meteohub,2013-04-02 15:34:00,
2013-04-02 11:39:00,75.0,55.6,30.12,NE,51,2.0,9.0,51,0.00,,,0.00,meteohub,2013-04-02 15:39:00,
2013-04-02 11:45:00,76.3,56.8,30.12,ENE,77,4.0,10.0,51,0.00,,,0.00,meteohub,2013-04-02 15:45:00,
2013-04-02 11:50:00,76.3,56.3,30.12,NE,34,2.0,10.0,50,0.00,,,0.00,meteohub,2013-04-02 15:50:00,
2013-04-02 11:55:00,76.6,56.7,30.12,WSW,249,0.0,8.0,50,0.00,,,0.00,meteohub,2013-04-02 15:55:00,
2013-04-02 12:00:00,77.7,55.9,30.12,North,0,5.0,8.0,47,0.00,,,0.00,meteohub,2013-04-02 16:00:00,
2013-04-02 12:06:00,77.5,54.5,30.12,NNE,25,8.0,11.0,45,0.00,,,0.00,meteohub,2013-04-02 16:06:00,
2013-04-02 12:11:00,77.4,55.0,30.12,NE,51,7.0,11.0,46,0.00,,,0.00,meteohub,2013-04-02 16:11:00,
2013-04-02 12:16:00,77.4,55.0,30.12,North,1,0.0,11.0,46,0.00,,,0.00,meteohub,2013-04-02 16:16:00,
2013-04-02 12:21:00,77.7,54.7,30.12,NNE,20,7.0,11.0,45,0.00,,,0.00,meteohub,2013-04-02 16:21:00,
2013-04-02 12:27:00,77.9,54.9,30.12,NNE,33,3.0,11.0,45,0.00,,,0.00,meteohub,2013-04-02 16:27:00,
2013-04-02 12:32:00,78.3,55.2,30.12,NW,326,0.0,8.0,45,0.00,,,0.00,meteohub,2013-04-02 16:32:00,
2013-04-02 12:37:00,78.8,54.5,30.12,NNE,16,3.0,10.0,43,0.00,,,0.00,meteohub,2013-04-02 16:37:00,
2013-04-02 12:42:00,78.6,53.6,30.12,North,11,5.0,10.0,42,0.00,,,0.00,meteohub,2013-04-02 16:42:00,
2013-04-02 12:47:00,78.8,54.5,30.11,North,351,3.0,11.0,43,0.00,,,0.00,meteohub,2013-04-02 16:47:00,
2013-04-02 12:52:00,79.3,53.6,30.11,WNW,289,0.0,11.0,41,0.00,,,0.00,meteohub,2013-04-02 16:52:00,
2013-04-02 12:57:00,79.5,53.1,30.11,ENE,68,2.0,11.0,40,0.00,,,0.00,meteohub,2013-04-02 16:57:00,
2013-04-02 13:02:00,79.3,52.9,30.11,NNE,33,10.0,13.0,40,0.00,,,0.00,meteohub,2013-04-02 17:02:00,
2013-04-02 13:07:00,79.5,53.8,30.11,NNE,18,6.0,13.0,41,0.00,,,0.00,meteohub,2013-04-02 17:07:00,
2013-04-02 13:12:00,79.5,53.8,30.11,NE,49,4.0,11.0,41,0.00,,,0.00,meteohub,2013-04-02 17:12:00,
2013-04-02 13:17:00,79.5,53.8,30.10,NNW,337,4.0,11.0,41,0.00,,,0.00,meteohub,2013-04-02 17:17:00,
2013-04-02 13:22:00,79.7,54.0,30.10,ENE,68,2.0,11.0,41,0.00,,,0.00,meteohub,2013-04-02 17:22:00,
2013-04-02 13:27:00,80.2,54.3,30.10,NW,312,0.0,11.0,41,0.00,,,0.00,meteohub,2013-04-02 17:27:00,
2013-04-02 13:32:00,81.3,54.0,30.09,NE,42,6.0,10.0,39,0.00,,,0.00,meteohub,2013-04-02 17:32:00,
2013-04-02 13:38:00,81.3,54.0,30.09,NE,42,0.0,10.0,39,0.00,,,0.00,meteohub,2013-04-02 17:38:00,
2013-04-02 13:43:00,81.0,52.9,30.09,NNE,33,2.0,7.0,38,0.00,,,0.00,meteohub,2013-04-02 17:43:00,
2013-04-02 13:49:00,80.2,53.1,30.09,North,6,5.0,10.0,39,0.00,,,0.00,meteohub,2013-04-02 17:49:00,
2013-04-02 13:54:00,80.6,53.4,30.09,NNW,348,4.0,10.0,39,0.00,,,0.00,meteohub,2013-04-02 17:54:00,
2013-04-02 13:59:00,80.1,52.9,30.09,North,350,6.0,11.0,39,0.00,,,0.00,meteohub,2013-04-02 17:59:00,
2013-04-02 14:04:00,80.2,52.3,30.09,NNE,17,2.0,12.0,38,0.00,,,0.00,meteohub,2013-04-02 18:04:00,
2013-04-02 14:09:00,80.2,52.3,30.09,NE,52,3.0,12.0,38,0.00,,,0.00,meteohub,2013-04-02 18:09:00,
2013-04-02 14:14:00,81.1,52.3,30.08,NE,44,0.0,12.0,37,0.00,,,0.00,meteohub,2013-04-02 18:14:00,
2013-04-02 14:19:00,82.0,52.5,30.08,East,90,1.0,7.0,36,0.00,,,0.00,meteohub,2013-04-02 18:19:00,
2013-04-02 14:24:00,81.9,51.4,30.08,ESE,117,2.0,7.0,35,0.00,,,0.00,meteohub,2013-04-02 18:24:00,
2013-04-02 14:29:00,81.7,52.2,30.08,NNE,16,5.0,7.0,36,0.00,,,0.00,meteohub,2013-04-02 18:29:00,
2013-04-02 14:35:00,81.3,51.8,30.08,NNE,17,8.0,8.0,36,0.00,,,0.00,meteohub,2013-04-02 18:35:00,
2013-04-02 14:40:00,80.6,51.3,30.08,NNE,15,1.0,8.0,36,0.00,,,0.00,meteohub,2013-04-02 18:40:00,
2013-04-02 14:45:00,80.4,51.1,30.08,North,1,0.0,9.0,36,0.00,,,0.00,meteohub,2013-04-02 18:45:00,
2013-04-02 14:50:00,81.0,50.0,30.07,WSW,240,0.0,9.0,34,0.00,,,0.00,meteohub,2013-04-02 18:50:00,
2013-04-02 14:55:00,81.3,51.8,30.07,NNE,22,5.0,9.0,36,0.00,,,0.00,meteohub,2013-04-02 18:55:00,
2013-04-02 15:00:00,81.1,51.6,30.07,North,8,4.0,13.0,36,0.00,,,0.00,meteohub,2013-04-02 19:00:00,
2013-04-02 15:05:00,81.0,51.4,30.06,NNE,17,6.0,13.0,36,0.00,,,0.00,meteohub,2013-04-02 19:05:00,
2013-04-02 15:10:00,80.4,51.8,30.06,WSW,257,0.0,13.0,37,0.00,,,0.00,meteohub,2013-04-02 19:10:00,
2013-04-02 15:15:00,80.4,51.8,30.06,East,87,2.0,11.0,37,0.00,,,0.00,meteohub,2013-04-02 19:15:00,
2013-04-02 15:20:00,81.1,52.3,30.06,North,355,2.0,11.0,37,0.00,,,0.00,meteohub,2013-04-02 19:20:00,
2013-04-02 15:25:00,81.1,51.6,30.06,North,359,7.0,12.0,36,0.00,,,0.00,meteohub,2013-04-02 19:25:00,
2013-04-02 15:31:00,80.8,51.3,30.06,NE,49,4.0,12.0,36,0.00,,,0.00,meteohub,2013-04-02 19:31:00,
2013-04-02 15:36:00,81.1,51.6,30.06,ENE,75,1.0,12.0,36,0.00,,,0.00,meteohub,2013-04-02 19:36:00,
2013-04-02 15:41:00,81.1,50.9,30.06,NNW,341,2.0,11.0,35,0.00,,,0.00,meteohub,2013-04-02 19:41:00,
2013-04-02 15:46:00,81.3,51.8,30.06,NNE,25,1.0,11.0,36,0.00,,,0.00,meteohub,2013-04-02 19:46:00,
2013-04-02 15:52:00,81.3,51.1,30.05,North,6,6.0,11.0,35,0.00,,,0.00,meteohub,2013-04-02 19:52:00,
2013-04-02 15:57:00,80.4,51.1,30.06,South,183,1.0,16.0,36,0.00,,,0.00,meteohub,2013-04-02 19:57:00,
2013-04-02 16:02:00,80.4,51.1,30.06,North,349,3.0,16.0,36,0.00,,,0.00,meteohub,2013-04-02 20:02:00,
2013-04-02 16:07:00,80.6,51.3,30.06,NNE,25,0.0,16.0,36,0.00,,,0.00,meteohub,2013-04-02 20:07:00,
2013-04-02 16:12:00,81.0,51.4,30.06,North,354,5.0,11.0,36,0.00,,,0.00,meteohub,2013-04-02 20:12:00,
2013-04-02 16:17:00,81.0,51.4,30.06,NE,44,6.0,10.0,36,0.00,,,0.00,meteohub,2013-04-02 20:17:00,
2013-04-02 16:22:00,80.2,50.2,30.05,NNE,25,3.0,11.0,35,0.00,,,0.00,meteohub,2013-04-02 20:22:00,
2013-04-02 16:27:00,80.2,50.2,30.05,SSW,207,0.0,11.0,35,0.00,,,0.00,meteohub,2013-04-02 20:27:00,
2013-04-02 16:32:00,80.4,50.2,30.05,ENE,65,1.0,11.0,35,0.00,,,0.00,meteohub,2013-04-02 20:32:00,
2013-04-02 16:37:00,80.2,49.3,30.05,NNE,13,8.0,12.0,34,0.00,,,0.00,meteohub,2013-04-02 20:37:00,
2013-04-02 16:43:00,80.4,48.7,30.05,NNE,25,6.0,13.0,33,0.00,,,0.00,meteohub,2013-04-02 20:43:00,
2013-04-02 16:48:00,80.4,48.7,30.06,North,8,4.0,13.0,33,0.00,,,0.00,meteohub,2013-04-02 20:48:00,
2013-04-02 16:53:00,80.4,48.7,30.06,NNE,20,2.0,13.0,33,0.00,,,0.00,meteohub,2013-04-02 20:53:00,
2013-04-02 16:58:00,80.1,48.4,30.06,NE,44,0.0,10.0,33,0.00,,,0.00,meteohub,2013-04-02 20:58:00,
2013-04-02 17:03:00,80.1,49.1,30.06,West,277,0.0,11.0,34,0.00,,,0.00,meteohub,2013-04-02 21:03:00,
2013-04-02 17:08:00,80.2,49.3,30.06,NNW,339,4.0,11.0,34,0.00,,,0.00,meteohub,2013-04-02 21:08:00,
2013-04-02 17:13:00,80.4,48.7,30.06,NNE,33,0.0,11.0,33,0.00,,,0.00,meteohub,2013-04-02 21:13:00,
2013-04-02 17:18:00,80.4,49.5,30.06,NNE,13,3.0,9.0,34,0.00,,,0.00,meteohub,2013-04-02 21:18:00,
2013-04-02 17:24:00,80.1,48.4,30.06,ENE,70,0.0,9.0,33,0.00,,,0.00,meteohub,2013-04-02 21:24:00,
2013-04-02 17:29:00,79.9,48.9,30.06,NNW,340,5.0,12.0,34,0.00,,,0.00,meteohub,2013-04-02 21:29:00,
2013-04-02 17:34:00,79.5,48.7,30.06,NNW,342,5.0,12.0,34,0.00,,,0.00,meteohub,2013-04-02 21:34:00,
2013-04-02 17:39:00,79.2,48.4,30.06,ENE,59,6.0,17.0,34,0.00,,,0.00,meteohub,2013-04-02 21:39:00,
2013-04-02 17:44:00,78.8,48.9,30.06,NNE,22,3.0,17.0,35,0.00,,,0.00,meteohub,2013-04-02 21:44:00,
2013-04-02 17:49:00,79.0,48.9,30.06,NE,35,3.0,17.0,35,0.00,,,0.00,meteohub,2013-04-02 21:49:00,
2013-04-02 17:55:00,78.6,48.7,30.06,NNE,20,4.0,11.0,35,0.00,,,0.00,meteohub,2013-04-02 21:55:00,
2013-04-02 18:00:00,78.4,49.3,30.06,North,8,1.0,9.0,36,0.00,,,0.00,meteohub,2013-04-02 22:00:00,
2013-04-02 18:05:00,78.3,48.4,30.06,NNW,342,6.0,11.0,35,0.00,,,0.00,meteohub,2013-04-02 22:05:00,
2013-04-02 18:10:00,77.9,48.0,30.06,NE,45,4.0,11.0,35,0.00,,,0.00,meteohub,2013-04-02 22:10:00,
2013-04-02 18:15:00,77.5,48.6,30.06,ENE,70,5.0,11.0,36,0.00,,,0.00,meteohub,2013-04-02 22:15:00,
2013-04-02 18:20:00,77.4,49.1,30.06,NNE,22,4.0,14.0,37,0.00,,,0.00,meteohub,2013-04-02 22:20:00,
2013-04-02 18:25:00,77.4,49.1,30.06,NNE,20,0.0,14.0,37,0.00,,,0.00,meteohub,2013-04-02 22:25:00,
2013-04-02 18:30:00,77.0,48.7,30.06,NNE,27,1.0,9.0,37,0.00,,,0.00,meteohub,2013-04-02 22:30:00,
2013-04-02 18:36:00,76.6,49.1,30.06,NNE,18,0.0,9.0,38,0.00,,,0.00,meteohub,2013-04-02 22:36:00,
2013-04-02 18:41:00,76.3,48.7,30.06,ENE,71,0.0,9.0,38,0.00,,,0.00,meteohub,2013-04-02 22:41:00,
2013-04-02 18:46:00,75.7,49.1,30.06,NE,56,0.0,10.0,39,0.00,,,0.00,meteohub,2013-04-02 22:46:00,
2013-04-02 18:51:00,75.6,47.5,30.06,NNE,28,0.0,10.0,37,0.00,,,0.00,meteohub,2013-04-02 22:51:00,
2013-04-02 18:57:00,75.4,48.0,30.06,South,180,0.0,10.0,38,0.00,,,0.00,meteohub,2013-04-02 22:57:00,
2013-04-02 19:02:00,75.0,47.7,30.06,SE,146,0.0,10.0,38,0.00,,,0.00,meteohub,2013-04-02 23:02:00,
2013-04-02 19:07:00,74.7,47.3,30.07,SSW,210,0.0,5.0,38,0.00,,,0.00,meteohub,2013-04-02 23:07:00,
2013-04-02 19:12:00,74.5,47.8,30.07,NE,40,0.0,5.0,39,0.00,,,0.00,meteohub,2013-04-02 23:12:00,
2013-04-02 19:17:00,73.9,47.5,30.07,East,84,0.0,5.0,39,0.00,,,0.00,meteohub,2013-04-02 23:17:00,
2013-04-02 19:22:00,73.6,47.8,30.07,NE,44,0.0,5.0,40,0.00,,,0.00,meteohub,2013-04-02 23:22:00,
2013-04-02 19:27:00,73.2,47.5,30.07,ENE,70,1.0,5.0,40,0.00,,,0.00,meteohub,2013-04-02 23:27:00,
2013-04-02 19:32:00,72.9,47.1,30.07,NE,47,0.0,5.0,40,0.00,,,0.00,meteohub,2013-04-02 23:32:00,
2013-04-02 19:38:00,72.5,46.8,30.07,ENE,60,0.0,4.0,40,0.00,,,0.00,meteohub,2013-04-02 23:38:00,
2013-04-02 19:43:00,72.1,46.4,30.07,WSW,249,0.0,4.0,40,0.00,,,0.00,meteohub,2013-04-02 23:43:00,
2013-04-02 19:48:00,71.8,46.8,30.07,NNE,21,0.0,4.0,41,0.00,,,0.00,meteohub,2013-04-02 23:48:00,
2013-04-02 19:53:00,71.4,47.1,30.08,NNE,21,1.0,3.0,42,0.00,,,0.00,meteohub,2013-04-02 23:53:00,
2013-04-02 19:58:00,71.1,48.0,30.07,NE,39,0.0,3.0,44,0.00,,,0.00,meteohub,2013-04-02 23:58:00,
2013-04-02 20:03:00,70.9,48.6,30.08,East,98,2.0,3.0,45,0.00,,,0.00,meteohub,2013-04-03 00:03:00,
2013-04-02 20:08:00,70.3,49.1,30.08,North,359,0.0,3.0,47,0.00,,,0.00,meteohub,2013-04-03 00:08:00,
2013-04-02 20:14:00,70.0,49.5,30.08,ESE,103,0.0,3.0,48,0.00,,,0.00,meteohub,2013-04-03 00:14:00,
2013-04-02 20:19:00,69.6,49.6,30.08,ENE,62,0.0,3.0,49,0.00,,,0.00,meteohub,2013-04-03 00:19:00,
2013-04-02 20:24:00,69.3,50.4,30.08,ESE,117,1.0,3.0,51,0.00,,,0.00,meteohub,2013-04-03 00:24:00,
2013-04-02 20:29:00,68.9,51.1,30.08,East,80,2.0,3.0,53,0.00,,,0.00,meteohub,2013-04-03 00:29:00,
2013-04-02 20:35:00,68.7,52.0,30.08,NNE,15,0.0,3.0,55,0.00,,,0.00,meteohub,2013-04-03 00:35:00,
2013-04-02 20:40:00,68.4,52.5,30.08,North,357,0.0,3.0,57,0.00,,,0.00,meteohub,2013-04-03 00:40:00,
2013-04-02 20:45:00,68.4,52.5,30.08,SSE,157,0.0,4.0,57,0.00,,,0.00,meteohub,2013-04-03 00:45:00,
2013-04-02 20:50:00,68.0,53.1,30.09,East,96,0.0,4.0,59,0.00,,,0.00,meteohub,2013-04-03 00:50:00,
2013-04-02 20:55:00,67.8,54.0,30.09,NNE,33,0.0,4.0,61,0.00,,,0.00,meteohub,2013-04-03 00:55:00,
2013-04-02 21:00:00,67.6,54.1,30.09,NNE,13,1.0,4.0,62,0.00,,,0.00,meteohub,2013-04-03 01:00:00,
2013-04-02 21:05:00,67.3,54.7,30.09,SSW,210,0.0,5.0,64,0.00,,,0.00,meteohub,2013-04-03 01:05:00,
2013-04-02 21:11:00,66.9,55.2,30.09,East,83,0.0,5.0,66,0.00,,,0.00,meteohub,2013-04-03 01:11:00,
2013-04-02 21:16:00,66.7,55.4,30.09,NE,52,0.0,5.0,67,0.00,,,0.00,meteohub,2013-04-03 01:16:00,
2013-04-02 21:21:00,66.7,55.8,30.09,East,93,0.0,3.0,68,0.00,,,0.00,meteohub,2013-04-03 01:21:00,
2013-04-02 21:26:00,66.6,55.6,30.09,NE,41,0.0,3.0,68,0.00,,,0.00,meteohub,2013-04-03 01:26:00,
2013-04-02 21:31:00,66.2,56.1,30.09,SSW,198,0.0,2.0,70,0.00,,,0.00,meteohub,2013-04-03 01:31:00,
2013-04-02 21:37:00,66.0,56.3,30.10,NE,36,1.0,4.0,71,0.00,,,0.00,meteohub,2013-04-03 01:37:00,
2013-04-02 21:42:00,65.8,56.5,30.09,East,101,0.0,4.0,72,0.00,,,0.00,meteohub,2013-04-03 01:42:00,
2013-04-02 21:47:00,65.7,56.8,30.10,NNE,12,0.0,1.0,73,0.00,,,0.00,meteohub,2013-04-03 01:47:00,
2013-04-02 21:52:00,65.5,57.0,30.10,NNE,12,0.0,4.0,74,0.00,,,0.00,meteohub,2013-04-03 01:52:00,
2013-04-02 21:58:00,65.1,57.0,30.10,North,3,0.0,4.0,75,0.00,,,0.00,meteohub,2013-04-03 01:58:00,
2013-04-02 22:03:00,64.9,57.2,30.10,ENE,65,0.0,4.0,76,0.00,,,0.00,meteohub,2013-04-03 02:03:00,
2013-04-02 22:08:00,64.9,57.9,30.10,North,6,2.0,3.0,78,0.00,,,0.00,meteohub,2013-04-03 02:08:00,
2013-04-02 22:13:00,64.9,58.3,30.11,NNE,32,0.0,3.0,79,0.00,,,0.00,meteohub,2013-04-03 02:13:00,
2013-04-02 22:19:00,64.9,58.6,30.11,ENE,70,0.0,4.0,80,0.00,,,0.00,meteohub,2013-04-03 02:19:00,
2013-04-02 22:24:00,64.8,58.5,30.11,NE,52,0.0,4.0,80,0.00,,,0.00,meteohub,2013-04-03 02:24:00,
2013-04-02 22:29:00,64.6,58.6,30.11,North,11,1.0,4.0,81,0.00,,,0.00,meteohub,2013-04-03 02:29:00,
2013-04-02 22:34:00,64.6,58.6,30.11,NE,45,0.0,2.0,81,0.00,,,0.00,meteohub,2013-04-03 02:34:00,
2013-04-02 22:40:00,64.4,58.8,30.11,North,358,0.0,1.0,82,0.00,,,0.00,meteohub,2013-04-03 02:40:00,
2013-04-02 22:45:00,64.2,58.6,30.11,ENE,62,0.0,1.0,82,0.00,,,0.00,meteohub,2013-04-03 02:45:00,
2013-04-02 22:50:00,64.0,58.8,30.10,NE,53,0.0,1.0,83,0.00,,,0.00,meteohub,2013-04-03 02:50:00,
2013-04-02 22:55:00,64.0,58.8,30.10,ENE,61,0.0,3.0,83,0.00,,,0.00,meteohub,2013-04-03 02:55:00,
2013-04-02 23:00:00,64.0,58.8,30.10,West,276,0.0,3.0,83,0.00,,,0.00,meteohub,2013-04-03 03:00:00,
2013-04-02 23:05:00,63.9,59.0,30.11,NNE,23,0.0,2.0,84,0.00,,,0.00,meteohub,2013-04-03 03:05:00,
2013-04-02 23:10:00,63.9,59.0,30.11,NW,319,1.0,2.0,84,0.00,,,0.00,meteohub,2013-04-03 03:10:00,
2013-04-02 23:15:00,63.9,59.0,30.11,ENE,58,0.0,2.0,84,0.00,,,0.00,meteohub,2013-04-03 03:15:00,
2013-04-02 23:20:00,63.7,59.0,30.11,ENE,60,0.0,2.0,85,0.00,,,0.00,meteohub,2013-04-03 03:20:00,
2013-04-02 23:25:00,63.7,59.0,30.11,ENE,76,0.0,3.0,85,0.00,,,0.00,meteohub,2013-04-03 03:25:00,
2013-04-02 23:30:00,63.7,59.0,30.11,NE,44,0.0,3.0,85,0.00,,,0.00,meteohub,2013-04-03 03:30:00,
2013-04-02 23:35:00,63.5,58.8,30.11,NE,41,0.0,3.0,85,0.00,,,0.00,meteohub,2013-04-03 03:35:00,
2013-04-02 23:40:00,63.3,59.0,30.10,NE,40,0.0,1.0,86,0.00,,,0.00,meteohub,2013-04-03 03:40:00,
2013-04-02 23:46:00,63.1,58.8,30.11,South,179,0.0,3.0,86,0.00,,,0.00,meteohub,2013-04-03 03:46:00,
2013-04-02 23:51:00,63.1,58.8,30.11,South,187,0.0,3.0,86,0.00,,,0.00,meteohub,2013-04-03 03:51:00,
2013-04-02 23:56:00,63.1,59.2,30.11,WSW,255,0.0,1.0,87,0.00,,,0.00,meteohub,2013-04-03 03:56:00,